sensor_id;sensor_type;location;lat;lon;timestamp;P1;durP1;ratioP1;P2;durP2;ratioP2
49834;SDS011;35729;52.090;13.162;2024-03-23T00:54:29;16.33;;;3.65;;
49834;SDS011;35729;52.090;13.162;2024-03-23T00:56:55;16.48;;;3.40;;
49834;SDS011;35729;52.090;13.162;2024-03-23T00:59:21;26.75;;;4.50;;
49834;SDS011;35729;52.090;13.162;2024-03-23T01:01:46;14.02;;;3.80;;
49834;SDS011;35729;52.090;13.162;2024-03-23T01:04:12;12.10;;;3.13;;
49834;SDS011;35729;52.090;13.162;2024-03-23T01:06:38;19.48;;;3.75;;
49834;SDS011;35729;52.090;13.162;2024-03-23T01:09:03;18.92;;;4.53;;
49834;SDS011;35729;52.090;13.162;2024-03-23T01:11:32;19.50;;;3.28;;
49834;SDS011;35729;52.090;13.162;2024-03-23T01:14:04;20.25;;;3.30;;
49834;SDS011;35729;52.090;13.162;2024-03-23T01:16:30;20.30;;;2.90;;
49834;SDS011;35729;52.090;13.162;2024-03-23T01:18:56;15.43;;;4.03;;
49834;SDS011;35729;52.090;13.162;2024-03-23T01:21:22;15.77;;;4.03;;
49834;SDS011;35729;52.090;13.162;2024-03-23T01:23:47;22.50;;;5.30;;
49834;SDS011;35729;52.090;13.162;2024-03-23T01:26:13;18.35;;;3.17;;
49834;SDS011;35729;52.090;13.162;2024-03-23T01:28:41;14.30;;;3.42;;
49834;SDS011;35729;52.090;13.162;2024-03-23T01:31:07;23.45;;;3.65;;
49834;SDS011;35729;52.090;13.162;2024-03-23T01:33:33;24.30;;;3.50;;
49834;SDS011;35729;52.090;13.162;2024-03-23T01:35:58;22.35;;;3.70;;
49834;SDS011;35729;52.090;13.162;2024-03-23T01:38:24;24.38;;;3.70;;
49834;SDS011;35729;52.090;13.162;2024-03-23T01:40:55;13.65;;;3.17;;
49834;SDS011;35729;52.090;13.162;2024-03-23T01:43:22;16.67;;;3.67;;
49834;SDS011;35729;52.090;13.162;2024-03-23T01:45:50;17.55;;;4.43;;
49834;SDS011;35729;52.090;13.162;2024-03-23T01:48:17;23.10;;;4.68;;
49834;SDS011;35729;52.090;13.162;2024-03-23T01:50:44;24.80;;;4.57;;
49834;SDS011;35729;52.090;13.162;2024-03-23T01:53:09;23.02;;;4.35;;
49834;SDS011;35729;52.090;13.162;2024-03-23T01:55:35;19.50;;;2.97;;
49834;SDS011;35729;52.090;13.162;2024-03-23T01:58:01;22.33;;;4.03;;
49834;SDS011;35729;52.090;13.162;2024-03-23T02:00:27;21.00;;;3.45;;
49834;SDS011;35729;52.090;13.162;2024-03-23T02:03:02;23.90;;;4.28;;
49834;SDS011;35729;52.090;13.162;2024-03-23T02:05:46;23.00;;;3.55;;
49834;SDS011;35729;52.090;13.162;2024-03-23T02:08:12;19.83;;;3.60;;
49834;SDS011;35729;52.090;13.162;2024-03-23T02:10:38;17.77;;;3.28;;
49834;SDS011;35729;52.090;13.162;2024-03-23T02:13:04;21.95;;;3.55;;
49834;SDS011;35729;52.090;13.162;2024-03-23T02:15:29;17.67;;;3.63;;
49834;SDS011;35729;52.090;13.162;2024-03-23T02:17:55;17.98;;;3.95;;
49834;SDS011;35729;52.090;13.162;2024-03-23T02:20:23;13.77;;;3.05;;
49834;SDS011;35729;52.090;13.162;2024-03-23T02:22:52;14.27;;;3.45;;
49834;SDS011;35729;52.090;13.162;2024-03-23T02:25:18;22.17;;;5.20;;
49834;SDS011;35729;52.090;13.162;2024-03-23T02:27:44;19.08;;;4.88;;
49834;SDS011;35729;52.090;13.162;2024-03-23T02:30:16;20.15;;;5.28;;
49834;SDS011;35729;52.090;13.162;2024-03-23T02:32:42;23.55;;;4.63;;
49834;SDS011;35729;52.090;13.162;2024-03-23T02:35:07;16.90;;;4.75;;
49834;SDS011;35729;52.090;13.162;2024-03-23T02:37:33;23.05;;;4.80;;
49834;SDS011;35729;52.090;13.162;2024-03-23T02:40:01;20.55;;;4.70;;
49834;SDS011;35729;52.090;13.162;2024-03-23T02:42:27;18.77;;;3.75;;
49834;SDS011;35729;52.090;13.162;2024-03-23T02:44:53;20.02;;;5.20;;
49834;SDS011;35729;52.090;13.162;2024-03-23T02:47:19;21.27;;;4.30;;
49834;SDS011;35729;52.090;13.162;2024-03-23T02:49:45;20.85;;;3.85;;
49834;SDS011;35729;52.090;13.162;2024-03-23T02:52:10;19.90;;;4.32;;
49834;SDS011;35729;52.090;13.162;2024-03-23T02:54:36;22.90;;;4.18;;
49834;SDS011;35729;52.090;13.162;2024-03-23T02:57:05;22.77;;;4.45;;
49834;SDS011;35729;52.090;13.162;2024-03-23T02:59:30;22.70;;;4.28;;
49834;SDS011;35729;52.090;13.162;2024-03-23T03:01:56;19.90;;;4.20;;
49834;SDS011;35729;52.090;13.162;2024-03-23T03:04:22;20.95;;;3.78;;
49834;SDS011;35729;52.090;13.162;2024-03-23T03:06:47;16.92;;;3.85;;
49834;SDS011;35729;52.090;13.162;2024-03-23T03:09:14;18.65;;;4.68;;
49834;SDS011;35729;52.090;13.162;2024-03-23T03:11:39;16.30;;;4.35;;
49834;SDS011;35729;52.090;13.162;2024-03-23T03:14:08;19.20;;;4.53;;
49834;SDS011;35729;52.090;13.162;2024-03-23T03:16:33;18.42;;;5.43;;
49834;SDS011;35729;52.090;13.162;2024-03-23T03:18:59;18.95;;;4.20;;
49834;SDS011;35729;52.090;13.162;2024-03-23T03:21:25;20.17;;;3.53;;
49834;SDS011;35729;52.090;13.162;2024-03-23T03:23:51;22.52;;;4.43;;
49834;SDS011;35729;52.090;13.162;2024-03-23T03:26:16;18.35;;;3.53;;
49834;SDS011;35729;52.090;13.162;2024-03-23T03:28:42;20.48;;;3.53;;
49834;SDS011;35729;52.090;13.162;2024-03-23T03:31:11;17.48;;;3.17;;
49834;SDS011;35729;52.090;13.162;2024-03-23T03:33:36;19.52;;;4.88;;
49834;SDS011;35729;52.090;13.162;2024-03-23T03:36:02;18.30;;;3.70;;
49834;SDS011;35729;52.090;13.162;2024-03-23T03:38:29;20.88;;;3.42;;
49834;SDS011;35729;52.090;13.162;2024-03-23T03:40:54;18.63;;;5.65;;
49834;SDS011;35729;52.090;13.162;2024-03-23T03:43:20;18.17;;;3.50;;
49834;SDS011;35729;52.090;13.162;2024-03-23T03:45:51;18.50;;;3.67;;
49834;SDS011;35729;52.090;13.162;2024-03-23T03:48:19;15.13;;;4.00;;
49834;SDS011;35729;52.090;13.162;2024-03-23T03:50:45;16.15;;;3.50;;
49834;SDS011;35729;52.090;13.162;2024-03-23T03:53:11;15.10;;;3.92;;
49834;SDS011;35729;52.090;13.162;2024-03-23T03:55:37;18.73;;;3.47;;
49834;SDS011;35729;52.090;13.162;2024-03-23T03:58:03;16.88;;;3.45;;
49834;SDS011;35729;52.090;13.162;2024-03-23T04:00:29;17.00;;;4.32;;
49834;SDS011;35729;52.090;13.162;2024-03-23T04:02:55;19.33;;;4.20;;
49834;SDS011;35729;52.090;13.162;2024-03-23T04:05:23;21.85;;;3.53;;
49834;SDS011;35729;52.090;13.162;2024-03-23T04:07:49;21.83;;;4.57;;
49834;SDS011;35729;52.090;13.162;2024-03-23T04:10:15;18.00;;;3.30;;
49834;SDS011;35729;52.090;13.162;2024-03-23T04:12:42;21.08;;;4.18;;
49834;SDS011;35729;52.090;13.162;2024-03-23T04:15:08;20.23;;;3.80;;
49834;SDS011;35729;52.090;13.162;2024-03-23T04:17:34;19.92;;;4.10;;
49834;SDS011;35729;52.090;13.162;2024-03-23T04:20:00;14.57;;;3.80;;
49834;SDS011;35729;52.090;13.162;2024-03-23T04:22:29;19.35;;;4.65;;
49834;SDS011;35729;52.090;13.162;2024-03-23T04:24:55;18.58;;;3.38;;
49834;SDS011;35729;52.090;13.162;2024-03-23T04:27:22;20.20;;;4.38;;
49834;SDS011;35729;52.090;13.162;2024-03-23T04:29:48;23.08;;;4.30;;
49834;SDS011;35729;52.090;13.162;2024-03-23T04:32:14;12.95;;;2.97;;
49834;SDS011;35729;52.090;13.162;2024-03-23T04:34:40;24.77;;;3.45;;
49834;SDS011;35729;52.090;13.162;2024-03-23T04:37:06;18.35;;;3.53;;
49834;SDS011;35729;52.090;13.162;2024-03-23T04:39:34;17.98;;;4.15;;
49834;SDS011;35729;52.090;13.162;2024-03-23T04:42:00;20.75;;;4.20;;
49834;SDS011;35729;52.090;13.162;2024-03-23T04:44:26;20.13;;;4.57;;
49834;SDS011;35729;52.090;13.162;2024-03-23T04:46:51;16.02;;;4.05;;
49834;SDS011;35729;52.090;13.162;2024-03-23T04:49:17;15.68;;;3.38;;
49834;SDS011;35729;52.090;13.162;2024-03-23T04:51:43;17.45;;;3.85;;
49834;SDS011;35729;52.090;13.162;2024-03-23T04:54:09;14.23;;;3.47;;
49834;SDS011;35729;52.090;13.162;2024-03-23T04:56:38;15.95;;;3.35;;
49834;SDS011;35729;52.090;13.162;2024-03-23T04:59:04;23.90;;;4.55;;
49834;SDS011;35729;52.090;13.162;2024-03-23T05:01:29;16.88;;;3.72;;
49834;SDS011;35729;52.090;13.162;2024-03-23T05:03:55;22.67;;;3.60;;
49834;SDS011;35729;52.090;13.162;2024-03-23T05:06:21;21.00;;;8.23;;
49834;SDS011;35729;52.090;13.162;2024-03-23T05:08:47;22.83;;;5.00;;
49834;SDS011;35729;52.090;13.162;2024-03-23T05:11:12;18.13;;;4.13;;
49834;SDS011;35729;52.090;13.162;2024-03-23T05:13:41;22.45;;;6.85;;
49834;SDS011;35729;52.090;13.162;2024-03-23T05:16:07;26.38;;;6.97;;
49834;SDS011;35729;52.090;13.162;2024-03-23T05:18:32;19.08;;;4.70;;
49834;SDS011;35729;52.090;13.162;2024-03-23T05:20:58;20.63;;;4.38;;
49834;SDS011;35729;52.090;13.162;2024-03-23T05:23:24;18.92;;;4.18;;
49834;SDS011;35729;52.090;13.162;2024-03-23T05:25:50;15.30;;;4.63;;
49834;SDS011;35729;52.090;13.162;2024-03-23T05:28:17;15.13;;;3.95;;
49834;SDS011;35729;52.090;13.162;2024-03-23T05:30:49;17.38;;;4.28;;
49834;SDS011;35729;52.090;13.162;2024-03-23T05:33:15;18.45;;;3.95;;
49834;SDS011;35729;52.090;13.162;2024-03-23T05:35:41;17.23;;;4.03;;
49834;SDS011;35729;52.090;13.162;2024-03-23T05:38:20;18.02;;;4.97;;
49834;SDS011;35729;52.090;13.162;2024-03-23T05:40:52;17.00;;;4.80;;
49834;SDS011;35729;52.090;13.162;2024-03-23T05:43:18;20.08;;;5.43;;
49834;SDS011;35729;52.090;13.162;2024-03-23T05:45:47;19.42;;;4.93;;
49834;SDS011;35729;52.090;13.162;2024-03-23T05:48:18;12.18;;;3.65;;
49834;SDS011;35729;52.090;13.162;2024-03-23T05:50:44;9.57;;;3.63;;
49834;SDS011;35729;52.090;13.162;2024-03-23T05:53:10;15.00;;;4.40;;
49834;SDS011;35729;52.090;13.162;2024-03-23T05:55:35;12.25;;;3.00;;
49834;SDS011;35729;52.090;13.162;2024-03-23T05:58:01;9.02;;;2.97;;
49834;SDS011;35729;52.090;13.162;2024-03-23T06:00:27;7.97;;;2.40;;
49834;SDS011;35729;52.090;13.162;2024-03-23T06:02:55;6.43;;;2.97;;
49834;SDS011;35729;52.090;13.162;2024-03-23T06:05:21;7.40;;;2.17;;
49834;SDS011;35729;52.090;13.162;2024-03-23T06:07:47;10.40;;;2.53;;
49834;SDS011;35729;52.090;13.162;2024-03-23T06:10:12;8.70;;;2.58;;
49834;SDS011;35729;52.090;13.162;2024-03-23T06:12:38;5.60;;;2.40;;
49834;SDS011;35729;52.090;13.162;2024-03-23T06:15:04;10.68;;;3.58;;
49834;SDS011;35729;52.090;13.162;2024-03-23T06:17:31;10.65;;;3.40;;
49834;SDS011;35729;52.090;13.162;2024-03-23T06:19:59;12.85;;;3.85;;
49834;SDS011;35729;52.090;13.162;2024-03-23T06:22:25;13.13;;;4.20;;
49834;SDS011;35729;52.090;13.162;2024-03-23T06:24:51;12.05;;;3.40;;
49834;SDS011;35729;52.090;13.162;2024-03-23T06:27:17;14.00;;;3.83;;
49834;SDS011;35729;52.090;13.162;2024-03-23T06:29:42;10.32;;;4.28;;
49834;SDS011;35729;52.090;13.162;2024-03-23T06:32:08;6.75;;;2.75;;
49834;SDS011;35729;52.090;13.162;2024-03-23T06:34:34;7.95;;;3.00;;
49834;SDS011;35729;52.090;13.162;2024-03-23T06:37:02;9.75;;;3.33;;
49834;SDS011;35729;52.090;13.162;2024-03-23T06:39:28;8.63;;;3.70;;
49834;SDS011;35729;52.090;13.162;2024-03-23T06:41:54;16.15;;;5.68;;
49834;SDS011;35729;52.090;13.162;2024-03-23T06:44:21;9.43;;;4.20;;
49834;SDS011;35729;52.090;13.162;2024-03-23T06:46:47;10.93;;;3.80;;
49834;SDS011;35729;52.090;13.162;2024-03-23T06:49:13;9.38;;;4.30;;
49834;SDS011;35729;52.090;13.162;2024-03-23T06:51:38;11.15;;;3.63;;
49834;SDS011;35729;52.090;13.162;2024-03-23T06:54:07;11.57;;;4.38;;
49834;SDS011;35729;52.090;13.162;2024-03-23T06:56:33;10.00;;;3.15;;
49834;SDS011;35729;52.090;13.162;2024-03-23T06:58:59;13.35;;;3.55;;
49834;SDS011;35729;52.090;13.162;2024-03-23T07:01:25;7.32;;;3.33;;
49834;SDS011;35729;52.090;13.162;2024-03-23T07:03:50;9.93;;;3.67;;
49834;SDS011;35729;52.090;13.162;2024-03-23T07:06:16;7.63;;;3.35;;
49834;SDS011;35729;52.090;13.162;2024-03-23T07:08:42;10.20;;;2.95;;
49834;SDS011;35729;52.090;13.162;2024-03-23T07:11:10;11.35;;;3.90;;
49834;SDS011;35729;52.090;13.162;2024-03-23T07:13:36;8.90;;;3.05;;
49834;SDS011;35729;52.090;13.162;2024-03-23T07:16:02;12.40;;;2.72;;
49834;SDS011;35729;52.090;13.162;2024-03-23T07:18:28;9.13;;;3.15;;
49834;SDS011;35729;52.090;13.162;2024-03-23T07:20:53;8.10;;;3.05;;
49834;SDS011;35729;52.090;13.162;2024-03-23T07:23:19;10.25;;;2.70;;
49834;SDS011;35729;52.090;13.162;2024-03-23T07:25:45;10.18;;;3.25;;
49834;SDS011;35729;52.090;13.162;2024-03-23T07:28:24;12.82;;;3.75;;
49834;SDS011;35729;52.090;13.162;2024-03-23T07:31:00;15.23;;;3.55;;
49834;SDS011;35729;52.090;13.162;2024-03-23T07:33:27;15.63;;;3.50;;
49834;SDS011;35729;52.090;13.162;2024-03-23T07:35:53;12.30;;;3.75;;
49834;SDS011;35729;52.090;13.162;2024-03-23T07:38:18;13.57;;;3.22;;
49834;SDS011;35729;52.090;13.162;2024-03-23T07:40:44;12.23;;;3.55;;
49834;SDS011;35729;52.090;13.162;2024-03-23T07:43:10;11.25;;;2.92;;
49834;SDS011;35729;52.090;13.162;2024-03-23T07:45:38;8.65;;;3.08;;
49834;SDS011;35729;52.090;13.162;2024-03-23T07:48:04;9.02;;;3.30;;
49834;SDS011;35729;52.090;13.162;2024-03-23T07:50:30;7.15;;;3.20;;
49834;SDS011;35729;52.090;13.162;2024-03-23T07:52:56;13.32;;;2.88;;
49834;SDS011;35729;52.090;13.162;2024-03-23T07:55:22;10.98;;;2.83;;
49834;SDS011;35729;52.090;13.162;2024-03-23T07:57:47;11.35;;;2.75;;
49834;SDS011;35729;52.090;13.162;2024-03-23T08:00:20;6.85;;;2.38;;
49834;SDS011;35729;52.090;13.162;2024-03-23T08:02:55;10.13;;;2.10;;
49834;SDS011;35729;52.090;13.162;2024-03-23T08:05:20;8.48;;;2.88;;
49834;SDS011;35729;52.090;13.162;2024-03-23T08:07:46;7.88;;;2.08;;
49834;SDS011;35729;52.090;13.162;2024-03-23T08:10:15;5.30;;;1.95;;
49834;SDS011;35729;52.090;13.162;2024-03-23T08:12:41;8.68;;;2.58;;
49834;SDS011;35729;52.090;13.162;2024-03-23T08:15:07;6.43;;;2.40;;
49834;SDS011;35729;52.090;13.162;2024-03-23T08:17:33;10.82;;;2.83;;
49834;SDS011;35729;52.090;13.162;2024-03-23T08:20:02;10.07;;;3.15;;
49834;SDS011;35729;52.090;13.162;2024-03-23T08:22:28;11.40;;;2.80;;
49834;SDS011;35729;52.090;13.162;2024-03-23T08:24:53;9.55;;;2.20;;
49834;SDS011;35729;52.090;13.162;2024-03-23T08:27:19;8.32;;;2.78;;
49834;SDS011;35729;52.090;13.162;2024-03-23T08:29:45;11.27;;;3.15;;
49834;SDS011;35729;52.090;13.162;2024-03-23T08:32:17;8.13;;;2.85;;
49834;SDS011;35729;52.090;13.162;2024-03-23T08:34:43;9.65;;;2.78;;
49834;SDS011;35729;52.090;13.162;2024-03-23T08:37:17;8.32;;;2.90;;
49834;SDS011;35729;52.090;13.162;2024-03-23T08:39:43;7.57;;;2.40;;
49834;SDS011;35729;52.090;13.162;2024-03-23T08:42:09;5.20;;;1.80;;
49834;SDS011;35729;52.090;13.162;2024-03-23T08:44:35;3.17;;;1.35;;
49834;SDS011;35729;52.090;13.162;2024-03-23T08:47:01;7.75;;;2.33;;
49834;SDS011;35729;52.090;13.162;2024-03-23T08:49:26;4.30;;;1.58;;
49834;SDS011;35729;52.090;13.162;2024-03-23T08:51:52;4.95;;;1.90;;
49834;SDS011;35729;52.090;13.162;2024-03-23T08:54:21;5.28;;;2.08;;
49834;SDS011;35729;52.090;13.162;2024-03-23T08:56:47;8.57;;;2.28;;
49834;SDS011;35729;52.090;13.162;2024-03-23T08:59:13;4.72;;;2.53;;
49834;SDS011;35729;52.090;13.162;2024-03-23T09:01:39;7.50;;;2.25;;
49834;SDS011;35729;52.090;13.162;2024-03-23T09:04:04;5.07;;;2.30;;
49834;SDS011;35729;52.090;13.162;2024-03-23T09:06:30;7.45;;;2.65;;
49834;SDS011;35729;52.090;13.162;2024-03-23T09:08:56;4.88;;;2.15;;
49834;SDS011;35729;52.090;13.162;2024-03-23T09:11:24;4.55;;;2.00;;
49834;SDS011;35729;52.090;13.162;2024-03-23T09:13:50;4.07;;;1.50;;
49834;SDS011;35729;52.090;13.162;2024-03-23T09:16:15;3.88;;;1.80;;
49834;SDS011;35729;52.090;13.162;2024-03-23T09:18:41;5.68;;;1.90;;
49834;SDS011;35729;52.090;13.162;2024-03-23T09:21:10;7.28;;;2.08;;
49834;SDS011;35729;52.090;13.162;2024-03-23T09:23:38;5.15;;;1.70;;
49834;SDS011;35729;52.090;13.162;2024-03-23T09:26:03;3.45;;;1.95;;
49834;SDS011;35729;52.090;13.162;2024-03-23T09:28:32;4.95;;;2.10;;
49834;SDS011;35729;52.090;13.162;2024-03-23T09:31:01;7.28;;;1.85;;
49834;SDS011;35729;52.090;13.162;2024-03-23T09:33:27;7.22;;;1.70;;
49834;SDS011;35729;52.090;13.162;2024-03-23T09:35:54;7.53;;;1.63;;
49834;SDS011;35729;52.090;13.162;2024-03-23T09:38:20;6.30;;;1.48;;
49834;SDS011;35729;52.090;13.162;2024-03-23T09:40:45;5.40;;;1.63;;
49834;SDS011;35729;52.090;13.162;2024-03-23T09:43:16;7.78;;;1.65;;
49834;SDS011;35729;52.090;13.162;2024-03-23T09:45:44;7.53;;;1.60;;
49834;SDS011;35729;52.090;13.162;2024-03-23T09:48:11;9.65;;;2.15;;
49834;SDS011;35729;52.090;13.162;2024-03-23T09:50:37;5.57;;;2.15;;
49834;SDS011;35729;52.090;13.162;2024-03-23T09:53:04;5.32;;;2.03;;
49834;SDS011;35729;52.090;13.162;2024-03-23T09:55:29;9.02;;;2.20;;
49834;SDS011;35729;52.090;13.162;2024-03-23T09:57:55;5.03;;;1.65;;
49834;SDS011;35729;52.090;13.162;2024-03-23T10:00:21;6.65;;;2.15;;
49834;SDS011;35729;52.090;13.162;2024-03-23T10:02:49;5.20;;;2.05;;
49834;SDS011;35729;52.090;13.162;2024-03-23T10:05:21;14.13;;;2.88;;
49834;SDS011;35729;52.090;13.162;2024-03-23T10:07:48;9.25;;;2.30;;
49834;SDS011;35729;52.090;13.162;2024-03-23T10:10:15;3.88;;;1.70;;
49834;SDS011;35729;52.090;13.162;2024-03-23T10:12:43;6.88;;;2.30;;
49834;SDS011;35729;52.090;13.162;2024-03-23T10:15:12;11.25;;;2.35;;
49834;SDS011;35729;52.090;13.162;2024-03-23T10:17:43;9.13;;;2.50;;
49834;SDS011;35729;52.090;13.162;2024-03-23T10:20:12;9.50;;;2.33;;
49834;SDS011;35729;52.090;13.162;2024-03-23T10:22:44;8.63;;;2.00;;
49834;SDS011;35729;52.090;13.162;2024-03-23T10:25:11;8.15;;;2.78;;
49834;SDS011;35729;52.090;13.162;2024-03-23T10:27:37;5.82;;;1.90;;
49834;SDS011;35729;52.090;13.162;2024-03-23T10:30:09;6.55;;;2.42;;
49834;SDS011;35729;52.090;13.162;2024-03-23T10:32:37;11.05;;;2.15;;
49834;SDS011;35729;52.090;13.162;2024-03-23T10:35:18;10.98;;;2.70;;
49834;SDS011;35729;52.090;13.162;2024-03-23T10:37:46;6.43;;;2.10;;
49834;SDS011;35729;52.090;13.162;2024-03-23T10:40:12;11.88;;;2.22;;
49834;SDS011;35729;52.090;13.162;2024-03-23T10:42:38;5.70;;;2.15;;
49834;SDS011;35729;52.090;13.162;2024-03-23T10:45:05;8.75;;;2.50;;
49834;SDS011;35729;52.090;13.162;2024-03-23T10:47:33;6.32;;;2.10;;
49834;SDS011;35729;52.090;13.162;2024-03-23T10:50:00;4.80;;;1.90;;
49834;SDS011;35729;52.090;13.162;2024-03-23T10:52:28;4.78;;;1.63;;
49834;SDS011;35729;52.090;13.162;2024-03-23T10:54:54;8.25;;;2.60;;
49834;SDS011;35729;52.090;13.162;2024-03-23T10:57:23;12.27;;;2.78;;
49834;SDS011;35729;52.090;13.162;2024-03-23T10:59:54;9.82;;;2.45;;
49834;SDS011;35729;52.090;13.162;2024-03-23T11:02:21;6.07;;;2.08;;
49834;SDS011;35729;52.090;13.162;2024-03-23T11:04:47;9.30;;;2.20;;
49834;SDS011;35729;52.090;13.162;2024-03-23T11:10:03;13.70;;;2.55;;
49834;SDS011;35729;52.090;13.162;2024-03-23T11:12:55;23.33;;;10.13;;
49834;SDS011;35729;52.090;13.162;2024-03-23T11:15:20;14.65;;;4.28;;
49834;SDS011;35729;52.090;13.162;2024-03-23T11:20:33;12.18;;;3.00;;
49834;SDS011;35729;52.090;13.162;2024-03-23T11:23:00;13.95;;;3.45;;
49834;SDS011;35729;52.090;13.162;2024-03-23T11:25:29;15.82;;;5.03;;
49834;SDS011;35729;52.090;13.162;2024-03-23T11:27:55;53.95;;;31.83;;
49834;SDS011;35729;52.090;13.162;2024-03-23T11:30:23;40.05;;;18.83;;
49834;SDS011;35729;52.090;13.162;2024-03-23T11:32:49;43.88;;;23.35;;
49834;SDS011;35729;52.090;13.162;2024-03-23T11:38:01;60.90;;;38.85;;
49834;SDS011;35729;52.090;13.162;2024-03-23T11:40:30;56.95;;;28.75;;
49834;SDS011;35729;52.090;13.162;2024-03-23T11:42:57;20.70;;;9.70;;
49834;SDS011;35729;52.090;13.162;2024-03-23T11:45:23;25.30;;;10.40;;
49834;SDS011;35729;52.090;13.162;2024-03-23T11:48:01;44.83;;;20.92;;
49834;SDS011;35729;52.090;13.162;2024-03-23T11:50:27;19.40;;;4.20;;
49834;SDS011;35729;52.090;13.162;2024-03-23T11:52:53;17.63;;;5.18;;
49834;SDS011;35729;52.090;13.162;2024-03-23T11:55:18;17.58;;;5.00;;
49834;SDS011;35729;52.090;13.162;2024-03-23T11:57:47;15.98;;;5.20;;
49834;SDS011;35729;52.090;13.162;2024-03-23T12:00:20;17.38;;;3.90;;
49834;SDS011;35729;52.090;13.162;2024-03-23T12:02:46;15.60;;;3.17;;
49834;SDS011;35729;52.090;13.162;2024-03-23T12:05:15;16.88;;;3.13;;
49834;SDS011;35729;52.090;13.162;2024-03-23T12:07:42;14.50;;;3.33;;
49834;SDS011;35729;52.090;13.162;2024-03-23T12:10:08;15.77;;;3.67;;
49834;SDS011;35729;52.090;13.162;2024-03-23T12:12:34;18.15;;;3.50;;
49834;SDS011;35729;52.090;13.162;2024-03-23T12:15:06;19.77;;;4.15;;
49834;SDS011;35729;52.090;13.162;2024-03-23T12:17:33;12.40;;;4.07;;
49834;SDS011;35729;52.090;13.162;2024-03-23T12:20:00;11.32;;;3.50;;
49834;SDS011;35729;52.090;13.162;2024-03-23T12:22:26;15.50;;;3.63;;
49834;SDS011;35729;52.090;13.162;2024-03-23T12:24:52;17.65;;;3.38;;
49834;SDS011;35729;52.090;13.162;2024-03-23T12:27:18;20.17;;;5.22;;
49834;SDS011;35729;52.090;13.162;2024-03-23T12:29:43;21.90;;;3.38;;
49834;SDS011;35729;52.090;13.162;2024-03-23T12:32:12;16.05;;;4.55;;
49834;SDS011;35729;52.090;13.162;2024-03-23T12:34:45;15.48;;;4.00;;
49834;SDS011;35729;52.090;13.162;2024-03-23T12:37:11;14.95;;;3.92;;
49834;SDS011;35729;52.090;13.162;2024-03-23T12:39:37;22.73;;;3.90;;
49834;SDS011;35729;52.090;13.162;2024-03-23T12:42:03;22.00;;;3.70;;
49834;SDS011;35729;52.090;13.162;2024-03-23T12:44:29;13.93;;;3.33;;
49834;SDS011;35729;52.090;13.162;2024-03-23T12:46:54;15.27;;;3.00;;
49834;SDS011;35729;52.090;13.162;2024-03-23T12:49:23;24.08;;;3.28;;
49834;SDS011;35729;52.090;13.162;2024-03-23T12:51:53;21.15;;;5.05;;
49834;SDS011;35729;52.090;13.162;2024-03-23T12:54:20;19.15;;;4.55;;
49834;SDS011;35729;52.090;13.162;2024-03-23T12:56:46;9.32;;;2.38;;
49834;SDS011;35729;52.090;13.162;2024-03-23T12:59:11;19.02;;;3.08;;
49834;SDS011;35729;52.090;13.162;2024-03-23T13:01:38;13.95;;;2.90;;
49834;SDS011;35729;52.090;13.162;2024-03-23T13:04:04;13.23;;;2.80;;
49834;SDS011;35729;52.090;13.162;2024-03-23T13:06:32;9.23;;;2.00;;
49834;SDS011;35729;52.090;13.162;2024-03-23T13:08:58;17.13;;;3.38;;
49834;SDS011;35729;52.090;13.162;2024-03-23T13:11:24;11.32;;;2.83;;
49834;SDS011;35729;52.090;13.162;2024-03-23T13:13:50;12.35;;;3.17;;
49834;SDS011;35729;52.090;13.162;2024-03-23T13:16:15;14.68;;;4.88;;
49834;SDS011;35729;52.090;13.162;2024-03-23T13:18:41;11.88;;;3.17;;
49834;SDS011;35729;52.090;13.162;2024-03-23T13:21:07;14.57;;;3.55;;
49834;SDS011;35729;52.090;13.162;2024-03-23T13:23:36;15.23;;;4.00;;
49834;SDS011;35729;52.090;13.162;2024-03-23T13:26:02;12.32;;;4.57;;
49834;SDS011;35729;52.090;13.162;2024-03-23T13:28:28;11.70;;;4.82;;
49834;SDS011;35729;52.090;13.162;2024-03-23T13:30:54;14.75;;;4.63;;
49834;SDS011;35729;52.090;13.162;2024-03-23T13:33:21;13.30;;;4.65;;
49834;SDS011;35729;52.090;13.162;2024-03-23T13:35:51;16.15;;;5.13;;
49834;SDS011;35729;52.090;13.162;2024-03-23T13:38:16;14.07;;;4.95;;
49834;SDS011;35729;52.090;13.162;2024-03-23T13:40:52;17.10;;;5.47;;
49834;SDS011;35729;52.090;13.162;2024-03-23T13:43:18;15.55;;;4.97;;
49834;SDS011;35729;52.090;13.162;2024-03-23T13:45:44;13.00;;;5.25;;
49834;SDS011;35729;52.090;13.162;2024-03-23T13:48:10;11.93;;;4.32;;
49834;SDS011;35729;52.090;13.162;2024-03-23T13:50:36;13.18;;;3.58;;
49834;SDS011;35729;52.090;13.162;2024-03-23T13:53:02;8.48;;;3.42;;
49834;SDS011;35729;52.090;13.162;2024-03-23T13:55:28;9.10;;;2.53;;
49834;SDS011;35729;52.090;13.162;2024-03-23T13:57:56;7.78;;;2.17;;
49834;SDS011;35729;52.090;13.162;2024-03-23T14:00:22;7.57;;;2.05;;
49834;SDS011;35729;52.090;13.162;2024-03-23T14:02:48;4.63;;;2.50;;
49834;SDS011;35729;52.090;13.162;2024-03-23T14:05:13;10.65;;;2.50;;
49834;SDS011;35729;52.090;13.162;2024-03-23T14:07:39;6.97;;;2.60;;
49834;SDS011;35729;52.090;13.162;2024-03-23T14:10:05;7.30;;;2.47;;
49834;SDS011;35729;52.090;13.162;2024-03-23T14:12:32;5.38;;;1.55;;
49834;SDS011;35729;52.090;13.162;2024-03-23T14:15:00;9.80;;;2.08;;
49834;SDS011;35729;52.090;13.162;2024-03-23T14:17:26;5.50;;;2.13;;
49834;SDS011;35729;52.090;13.162;2024-03-23T14:19:52;6.57;;;2.45;;
49834;SDS011;35729;52.090;13.162;2024-03-23T14:22:18;6.85;;;2.45;;
49834;SDS011;35729;52.090;13.162;2024-03-23T14:24:44;6.50;;;2.33;;
49834;SDS011;35729;52.090;13.162;2024-03-23T14:27:10;7.07;;;1.80;;
49834;SDS011;35729;52.090;13.162;2024-03-23T14:29:35;8.18;;;2.40;;
49834;SDS011;35729;52.090;13.162;2024-03-23T14:32:11;10.27;;;4.32;;
49834;SDS011;35729;52.090;13.162;2024-03-23T14:34:36;10.35;;;2.90;;
49834;SDS011;35729;52.090;13.162;2024-03-23T14:37:02;6.88;;;2.88;;
49834;SDS011;35729;52.090;13.162;2024-03-23T14:39:28;10.38;;;3.20;;
49834;SDS011;35729;52.090;13.162;2024-03-23T14:41:54;6.80;;;2.70;;
49834;SDS011;35729;52.090;13.162;2024-03-23T14:44:20;9.98;;;2.88;;
49834;SDS011;35729;52.090;13.162;2024-03-23T14:46:45;8.10;;;3.05;;
49834;SDS011;35729;52.090;13.162;2024-03-23T14:49:14;10.38;;;3.25;;
49834;SDS011;35729;52.090;13.162;2024-03-23T14:51:41;8.02;;;3.05;;
49834;SDS011;35729;52.090;13.162;2024-03-23T14:54:07;10.32;;;2.90;;
49834;SDS011;35729;52.090;13.162;2024-03-23T14:56:33;5.15;;;2.20;;
49834;SDS011;35729;52.090;13.162;2024-03-23T14:58:59;8.55;;;2.28;;
49834;SDS011;35729;52.090;13.162;2024-03-23T15:01:25;8.63;;;2.95;;
49834;SDS011;35729;52.090;13.162;2024-03-23T15:03:50;5.95;;;2.30;;
49834;SDS011;35729;52.090;13.162;2024-03-23T15:06:19;8.52;;;3.03;;
49834;SDS011;35729;52.090;13.162;2024-03-23T15:08:44;5.50;;;2.15;;
49834;SDS011;35729;52.090;13.162;2024-03-23T15:11:10;9.15;;;2.63;;
49834;SDS011;35729;52.090;13.162;2024-03-23T15:13:36;4.25;;;1.85;;
49834;SDS011;35729;52.090;13.162;2024-03-23T15:16:04;6.70;;;1.85;;
49834;SDS011;35729;52.090;13.162;2024-03-23T15:18:30;6.55;;;1.80;;
49834;SDS011;35729;52.090;13.162;2024-03-23T15:20:56;6.78;;;2.15;;
49834;SDS011;35729;52.090;13.162;2024-03-23T15:23:26;4.55;;;1.58;;
49834;SDS011;35729;52.090;13.162;2024-03-23T15:25:54;5.20;;;1.67;;